createdAt,value
2022-09-16T00:00:36.241Z,56.70
2022-09-16T00:03:02.809Z,56.00
2022-09-16T00:07:56.183Z,56.50
2022-09-16T00:10:22.585Z,56.50
2022-09-16T00:12:48.986Z,56.50
2022-09-16T00:15:15.388Z,56.50
2022-09-16T00:17:41.896Z,56.30
2022-09-16T00:20:08.290Z,56.40
2022-09-16T00:22:34.681Z,56.70
2022-09-16T00:25:01.083Z,56.40
2022-09-16T00:27:27.493Z,56.10
2022-09-16T00:29:53.897Z,56.60
2022-09-16T00:34:47.255Z,56.40
2022-09-16T00:48:30.076Z,56.40
2022-09-16T00:50:56.491Z,56.10
2022-09-16T00:55:49.895Z,56.30
2022-09-16T00:58:16.329Z,56.50
2022-09-16T01:00:42.788Z,56.30
2022-09-16T01:03:09.228Z,56.40
2022-09-16T01:08:04.482Z,56.10
2022-09-16T01:10:30.890Z,56.30
2022-09-16T01:12:57.321Z,56.30
2022-09-16T01:15:23.729Z,55.90
2022-09-16T01:17:50.145Z,56.20
2022-09-16T01:20:16.595Z,56.20
2022-09-16T01:22:43.009Z,56.20
2022-09-16T01:25:09.457Z,56.00
2022-09-16T01:27:35.872Z,56.20
2022-09-16T01:30:02.281Z,56.50
2022-09-16T01:34:55.678Z,56.20
2022-09-16T01:37:22.130Z,56.20
2022-09-16T01:39:48.642Z,56.20
2022-09-16T01:44:42.032Z,56.10
2022-09-16T01:47:08.483Z,56.30
2022-09-16T01:49:34.896Z,56.30
2022-09-16T01:52:01.327Z,56.10
2022-09-16T01:56:54.692Z,56.70
2022-09-16T01:59:21.086Z,56.00
2022-09-16T02:01:47.588Z,56.10
2022-09-16T02:06:41.049Z,56.20
2022-09-16T02:09:07.482Z,56.20
2022-09-16T02:11:33.886Z,56.20
2022-09-16T02:16:27.332Z,56.50
2022-09-16T02:18:53.795Z,56.00
2022-09-16T02:21:20.207Z,56.30
2022-09-16T02:23:46.620Z,55.90
2022-09-16T02:26:13.026Z,55.90
2022-09-16T02:28:39.431Z,56.10
2022-09-16T02:38:26.766Z,55.90
2022-09-16T02:40:53.178Z,56.00
2022-09-16T02:45:46.558Z,56.00
2022-09-16T02:48:12.978Z,56.00
2022-09-16T02:50:39.386Z,56.10
2022-09-16T02:57:59.666Z,56.00
2022-09-16T03:02:53.093Z,56.70
2022-09-16T03:10:13.436Z,56.10
2022-09-16T03:12:39.845Z,56.00
2022-09-16T03:15:06.277Z,56.10
2022-09-16T03:17:32.721Z,56.10
2022-09-16T03:19:59.134Z,55.80
2022-09-16T03:22:25.548Z,56.10
2022-09-16T03:27:18.943Z,55.90
2022-09-16T03:29:46.057Z,55.90
2022-09-16T03:37:06.457Z,55.90
2022-09-16T03:39:32.870Z,56.00
2022-09-16T03:41:59.313Z,55.40
2022-09-16T03:44:25.721Z,55.90
2022-09-16T03:46:52.166Z,55.80
2022-09-16T03:49:18.583Z,55.80
2022-09-16T03:56:38.946Z,55.60
2022-09-16T03:59:05.359Z,55.90
2022-09-16T04:01:31.834Z,55.70
2022-09-16T04:03:58.264Z,55.80
2022-09-16T04:06:24.669Z,56.10
2022-09-16T04:11:18.023Z,56.00
2022-09-16T04:13:44.431Z,55.70
2022-09-16T04:16:10.952Z,55.90
2022-09-16T04:18:38.039Z,56.00
2022-09-16T04:21:04.443Z,56.10
2022-09-16T04:23:30.846Z,55.60
2022-09-16T04:28:24.224Z,55.50
2022-09-16T04:30:50.685Z,55.40
2022-09-16T04:33:17.128Z,55.40
2022-09-16T04:35:43.537Z,55.80
2022-09-16T04:40:36.943Z,56.60
2022-09-16T04:43:03.458Z,55.50
2022-09-16T04:45:37.178Z,55.90
2022-09-16T04:48:03.575Z,56.10
2022-09-16T04:50:29.987Z,56.30
2022-09-16T04:52:56.382Z,55.80
2022-09-16T04:55:22.778Z,55.60
2022-09-16T05:00:16.124Z,55.70
2022-09-16T05:02:42.517Z,56.50
2022-09-16T05:05:08.918Z,56.30
2022-09-16T05:07:35.336Z,56.30
2022-09-16T05:10:01.764Z,55.90
2022-09-16T05:12:28.161Z,55.80
2022-09-16T05:14:54.586Z,55.90
2022-09-16T05:17:46.405Z,56.00
2022-09-16T05:22:34.325Z,56.00
2022-09-16T05:25:00.726Z,56.20
2022-09-16T05:27:27.147Z,56.00
2022-09-16T05:29:53.548Z,56.10
2022-09-16T05:32:19.944Z,55.90
2022-09-16T05:34:46.358Z,55.60
2022-09-16T05:37:12.778Z,56.20
2022-09-16T05:39:39.194Z,55.80
2022-09-16T05:42:05.621Z,56.30
2022-09-16T05:44:32.021Z,56.20
2022-09-16T05:46:58.454Z,56.10
2022-09-16T05:49:24.878Z,56.20
2022-09-16T05:51:51.278Z,56.10
2022-09-16T05:54:17.909Z,56.10
2022-09-16T05:56:44.326Z,56.30
2022-09-16T05:59:10.728Z,56.10
2022-09-16T06:01:37.187Z,56.70
2022-09-16T06:04:03.694Z,56.70
2022-09-16T06:06:30.104Z,56.40
2022-09-16T06:08:56.576Z,56.40
2022-09-16T06:11:23.014Z,56.20
2022-09-16T06:13:49.419Z,56.90
2022-09-16T06:16:15.872Z,57.30
2022-09-16T06:18:42.333Z,56.20
2022-09-16T06:21:08.769Z,56.20
2022-09-16T06:23:35.180Z,56.50
2022-09-16T06:26:01.573Z,56.50
2022-09-16T06:28:27.974Z,56.80
2022-09-16T06:30:54.428Z,56.60
2022-09-16T06:33:20.893Z,56.40
2022-09-16T06:35:47.333Z,56.40
2022-09-16T06:38:13.766Z,56.50
2022-09-16T06:40:40.168Z,56.60
2022-09-16T06:43:06.594Z,55.90
2022-09-16T06:45:32.998Z,56.10
2022-09-16T06:47:59.394Z,56.80
2022-09-16T06:50:25.791Z,56.20
2022-09-16T06:52:52.214Z,56.20
2022-09-16T06:55:18.606Z,56.20
2022-09-16T06:57:45.035Z,56.40
2022-09-16T07:00:11.456Z,56.30
2022-09-16T07:02:37.902Z,56.30
2022-09-16T07:05:04.413Z,56.00
2022-09-16T07:07:30.829Z,56.40
2022-09-16T07:09:57.232Z,56.20
2022-09-16T07:12:23.625Z,56.80
2022-09-16T07:17:16.962Z,56.60
2022-09-16T07:19:43.358Z,56.40
2022-09-16T07:22:09.791Z,56.70
2022-09-16T07:24:36.193Z,56.30
2022-09-16T07:29:29.565Z,56.50
2022-09-16T07:31:55.965Z,56.70
2022-09-16T07:34:22.369Z,56.70
2022-09-16T07:36:48.770Z,56.20
2022-09-16T07:39:15.169Z,56.20
2022-09-16T07:41:41.597Z,56.40
2022-09-16T07:44:08.020Z,56.10
2022-09-16T07:46:34.426Z,55.60
2022-09-16T07:49:00.830Z,56.10
2022-09-16T07:53:54.181Z,56.00
2022-09-16T07:56:20.578Z,56.40
2022-09-16T07:58:47.000Z,55.90
2022-09-16T08:01:13.426Z,56.30
2022-09-16T08:03:39.900Z,56.00
2022-09-16T08:06:06.298Z,56.20
2022-09-16T08:08:32.696Z,56.60
2022-09-16T08:10:59.332Z,56.10
2022-09-16T08:13:25.786Z,56.40
2022-09-16T08:18:19.126Z,56.10
2022-09-16T08:20:45.528Z,56.30
2022-09-16T08:23:11.957Z,56.40
2022-09-16T08:25:38.376Z,57.20
2022-09-16T08:30:31.759Z,56.00
2022-09-16T08:32:58.161Z,56.00
2022-09-16T08:35:24.573Z,56.40
2022-09-16T08:40:18.047Z,56.20
2022-09-16T08:42:44.502Z,56.80
2022-09-16T08:45:10.939Z,56.40
2022-09-16T08:47:37.404Z,56.10
2022-09-16T08:50:03.825Z,56.60
2022-09-16T08:52:30.245Z,56.40
2022-09-16T08:54:56.644Z,56.40
2022-09-16T08:57:23.045Z,56.70
2022-09-16T08:59:49.442Z,56.60
2022-09-16T09:02:16.158Z,56.60
2022-09-16T09:04:42.855Z,56.70
2022-09-16T09:07:09.277Z,56.60
2022-09-16T09:09:35.688Z,56.80
2022-09-16T09:12:02.124Z,56.60
2022-09-16T09:14:28.571Z,56.70
2022-09-16T09:16:55.071Z,57.10
2022-09-16T09:19:21.543Z,56.60
2022-09-16T09:21:47.933Z,56.50
2022-09-16T09:24:14.338Z,56.80
2022-09-16T09:26:40.738Z,56.50
2022-09-16T09:29:07.137Z,56.50
2022-09-16T09:31:33.605Z,56.70
2022-09-16T09:34:00.069Z,56.80
2022-09-16T09:36:26.543Z,56.20
2022-09-16T09:38:53.081Z,57.10
2022-09-16T09:43:46.470Z,56.80
2022-09-16T09:46:12.941Z,56.80
2022-09-16T09:48:39.398Z,56.40
2022-09-16T09:51:05.791Z,57.10
2022-09-16T09:53:32.184Z,56.20
2022-09-16T09:55:58.612Z,57.00
2022-09-16T09:58:25.039Z,57.20
2022-09-16T10:00:51.498Z,56.50
2022-09-16T10:03:17.926Z,56.30
2022-09-16T10:08:13.084Z,56.60
2022-09-16T10:10:42.264Z,56.80
2022-09-16T10:13:08.677Z,56.70
2022-09-16T10:15:35.069Z,56.60
2022-09-16T10:18:01.467Z,56.60
2022-09-16T10:20:27.861Z,56.80
2022-09-16T10:25:21.203Z,56.70
2022-09-16T10:27:47.597Z,56.80
2022-09-16T10:30:14.067Z,56.60
2022-09-16T10:32:40.509Z,57.50
2022-09-16T10:35:06.909Z,57.20
2022-09-16T10:37:33.360Z,56.50
2022-09-16T10:42:26.767Z,56.80
2022-09-16T10:44:53.270Z,56.80
2022-09-16T10:47:19.692Z,57.00
2022-09-16T10:52:13.041Z,56.70
2022-09-16T10:54:39.445Z,57.00
2022-09-16T10:57:05.858Z,56.40
2022-09-16T10:59:32.313Z,57.00
2022-09-16T11:01:59.038Z,56.90
2022-09-16T11:04:25.618Z,57.40
2022-09-16T11:06:52.035Z,58.00
2022-09-16T11:09:18.443Z,56.80
2022-09-16T11:11:44.878Z,56.80
2022-09-16T11:14:11.299Z,56.80
2022-09-16T11:16:37.759Z,56.80
2022-09-16T11:19:04.189Z,57.10
2022-09-16T11:21:30.598Z,56.90
2022-09-16T11:23:57.005Z,56.80
2022-09-16T11:26:23.426Z,56.50
2022-09-16T11:28:49.846Z,56.90
2022-09-16T11:31:16.307Z,57.10
2022-09-16T11:33:42.759Z,56.80
2022-09-16T11:36:09.168Z,56.80
2022-09-16T11:38:35.599Z,56.80
2022-09-16T11:41:02.030Z,57.10
2022-09-16T11:43:28.414Z,56.80
2022-09-16T11:45:54.863Z,56.40
2022-09-16T11:48:21.260Z,57.20
2022-09-16T11:50:47.661Z,56.60
2022-09-16T11:53:15.005Z,56.60
2022-09-16T11:55:42.237Z,56.60
2022-09-16T11:58:08.631Z,56.20
2022-09-16T12:00:35.045Z,57.30
2022-09-16T12:03:01.511Z,56.30
2022-09-16T12:05:28.007Z,56.40
2022-09-16T12:07:54.410Z,56.50
2022-09-16T12:10:20.811Z,56.60
2022-09-16T12:12:47.219Z,57.00
2022-09-16T12:17:40.567Z,56.60
2022-09-16T12:20:06.992Z,57.00
2022-09-16T12:22:33.399Z,56.90
2022-09-16T12:27:26.737Z,56.40
2022-09-16T12:29:53.132Z,56.90
2022-09-16T12:32:19.533Z,57.10
2022-09-16T12:34:45.926Z,57.20
2022-09-16T12:37:12.338Z,56.60
2022-09-16T12:39:38.737Z,57.30
2022-09-16T12:42:05.141Z,56.90
2022-09-16T12:44:34.329Z,57.30
2022-09-16T12:47:01.272Z,56.70
2022-09-16T12:49:27.668Z,56.70
2022-09-16T12:51:54.068Z,57.30
2022-09-16T12:54:20.474Z,58.50
2022-09-16T12:56:46.874Z,57.00
2022-09-16T12:59:13.292Z,57.20
2022-09-16T13:01:39.793Z,56.70
2022-09-16T13:04:06.356Z,57.30
2022-09-16T13:06:32.771Z,58.00
2022-09-16T13:08:59.168Z,57.00
2022-09-16T13:12:16.388Z,57.10
2022-09-16T13:14:11.960Z,57.50
2022-09-16T13:16:38.363Z,57.40
2022-09-16T13:19:04.765Z,57.20
2022-09-16T13:21:31.199Z,57.40
2022-09-16T13:23:57.590Z,57.10
2022-09-16T13:26:24.006Z,57.10
2022-09-16T13:28:50.410Z,57.20
2022-09-16T13:31:16.897Z,57.30
2022-09-16T13:33:43.332Z,57.20
2022-09-16T13:36:09.734Z,57.10
2022-09-16T13:38:36.135Z,56.90
2022-09-16T13:41:02.531Z,57.80
2022-09-16T13:43:29.005Z,57.30
2022-09-16T13:45:55.454Z,57.60
2022-09-16T13:48:21.898Z,57.30
2022-09-16T13:50:48.301Z,57.20
2022-09-16T13:53:14.718Z,57.30
2022-09-16T13:55:41.138Z,57.30
2022-09-16T13:58:07.564Z,57.00
2022-09-16T14:00:36.118Z,56.90
2022-09-16T14:03:03.068Z,57.30
2022-09-16T14:05:29.501Z,57.20
2022-09-16T14:07:55.919Z,57.70
2022-09-16T14:10:22.321Z,57.10
2022-09-16T14:12:48.731Z,57.40
2022-09-16T14:15:15.149Z,57.50
2022-09-16T14:17:41.549Z,56.70
2022-09-16T14:20:07.952Z,57.20
2022-09-16T14:25:19.017Z,57.10
2022-09-16T14:27:47.700Z,56.90
2022-09-16T14:30:14.145Z,56.90
2022-09-16T14:32:40.548Z,56.90
2022-09-16T14:35:06.954Z,56.60
2022-09-16T14:37:33.366Z,57.00
2022-09-16T14:39:59.799Z,57.00
2022-09-16T14:42:26.232Z,56.80
2022-09-16T14:44:52.645Z,57.00
2022-09-16T14:47:29.485Z,56.90
2022-09-16T14:50:05.452Z,57.40
2022-09-16T14:52:31.877Z,57.40
2022-09-16T14:54:58.302Z,57.20
2022-09-16T14:57:24.694Z,56.80
2022-09-16T14:59:51.104Z,56.90
2022-09-16T15:02:17.510Z,56.80
2022-09-16T15:04:43.977Z,57.10
2022-09-16T15:07:12.445Z,56.60
2022-09-16T15:09:39.105Z,56.80
2022-09-16T15:12:05.517Z,57.20
2022-09-16T15:14:31.938Z,56.80
2022-09-16T15:16:58.343Z,56.80
2022-09-16T15:19:24.760Z,57.10
2022-09-16T15:21:51.190Z,56.70
2022-09-16T15:24:17.598Z,56.60
2022-09-16T15:26:44.095Z,56.90
2022-09-16T15:29:10.509Z,56.80
2022-09-16T15:34:03.925Z,56.50
2022-09-16T15:36:30.318Z,56.70
2022-09-16T15:38:56.716Z,56.40
2022-09-16T15:41:23.113Z,56.60
2022-09-16T15:43:49.519Z,56.00
2022-09-16T15:46:15.955Z,56.60
2022-09-16T15:48:42.425Z,56.40
2022-09-16T15:51:08.820Z,56.60
2022-09-16T15:53:35.230Z,56.60
2022-09-16T15:56:01.617Z,56.50
2022-09-16T16:00:54.978Z,56.60
2022-09-16T16:03:21.379Z,56.60
2022-09-16T16:08:14.717Z,56.40
2022-09-16T16:10:41.113Z,56.50
2022-09-16T16:13:07.524Z,56.50
2022-09-16T16:15:33.992Z,56.60
2022-09-16T16:18:00.429Z,56.50
2022-09-16T16:22:53.943Z,56.60
2022-09-16T16:25:20.392Z,56.80
2022-09-16T16:27:46.802Z,56.40
2022-09-16T16:32:40.161Z,56.60
2022-09-16T16:35:06.553Z,56.80
2022-09-16T16:37:48.385Z,56.50
2022-09-16T16:40:14.930Z,56.60
2022-09-16T16:42:41.528Z,56.50
2022-09-16T16:45:07.942Z,55.40
2022-09-16T16:47:34.343Z,56.80
2022-09-16T16:50:00.747Z,56.30
2022-09-16T16:52:27.143Z,56.30
2022-09-16T16:54:53.546Z,56.50
2022-09-16T16:57:19.956Z,56.40
2022-09-16T16:59:46.374Z,56.50
2022-09-16T17:02:12.827Z,56.50
2022-09-16T17:04:39.279Z,56.50
2022-09-16T17:07:25.045Z,56.20
2022-09-16T17:09:52.108Z,56.40
2022-09-16T17:12:18.520Z,56.20
2022-09-16T17:14:44.940Z,56.50
2022-09-16T17:17:11.366Z,56.20
2022-09-16T17:19:37.775Z,56.50
2022-09-16T17:22:04.172Z,56.40
2022-09-16T17:24:30.578Z,56.60
2022-09-16T17:26:56.998Z,56.50
2022-09-16T17:29:23.394Z,56.10
2022-09-16T17:31:49.784Z,56.30
2022-09-16T17:34:16.193Z,56.40
2022-09-16T17:36:42.629Z,55.80
2022-09-16T17:39:09.038Z,56.40
2022-09-16T17:41:35.439Z,56.20
2022-09-16T17:44:01.856Z,55.80
2022-09-16T17:46:28.295Z,56.00
2022-09-16T17:48:54.766Z,55.60
2022-09-16T17:51:21.162Z,56.10
2022-09-16T17:53:47.606Z,55.80
2022-09-16T17:56:14.032Z,55.80
2022-09-16T17:58:40.458Z,55.70
2022-09-16T18:01:06.898Z,55.90
2022-09-16T18:03:33.295Z,56.00
2022-09-16T18:05:59.718Z,56.50
2022-09-16T18:08:26.122Z,55.40
2022-09-16T18:10:52.523Z,55.90
2022-09-16T18:13:18.913Z,56.40
2022-09-16T18:15:45.323Z,56.00
2022-09-16T18:18:11.741Z,56.10
2022-09-16T18:20:38.147Z,56.10
2022-09-16T18:23:04.571Z,56.10
2022-09-16T18:25:30.984Z,56.10
2022-09-16T18:27:57.401Z,56.10
2022-09-16T18:30:23.835Z,55.80
2022-09-16T18:32:50.252Z,56.30
2022-09-16T18:35:16.671Z,55.10
2022-09-16T18:37:43.067Z,55.80
2022-09-16T18:40:09.507Z,56.00
2022-09-16T18:42:35.968Z,55.90
2022-09-16T18:45:02.373Z,56.30
2022-09-16T18:47:28.773Z,55.90
2022-09-16T18:49:55.184Z,55.80
2022-09-16T18:52:21.598Z,56.20
2022-09-16T18:54:48.006Z,55.70
2022-09-16T18:57:14.418Z,56.50
2022-09-16T18:59:40.829Z,56.00
2022-09-16T19:04:34.311Z,55.60
2022-09-16T19:07:00.714Z,56.00
2022-09-16T19:11:54.075Z,55.50
2022-09-16T19:14:20.499Z,56.10
2022-09-16T19:16:46.910Z,56.30
2022-09-16T19:19:13.347Z,55.50
2022-09-16T19:24:06.740Z,55.90
2022-09-16T19:26:33.160Z,55.90
2022-09-16T19:28:59.658Z,56.40
2022-09-16T19:31:26.097Z,56.00
2022-09-16T19:33:52.514Z,56.00
2022-09-16T19:36:18.941Z,56.00
2022-09-16T19:38:45.335Z,55.70
2022-09-16T19:41:11.726Z,55.70
2022-09-16T19:43:38.150Z,55.90
2022-09-16T19:46:04.660Z,55.90
2022-09-16T19:48:31.270Z,56.30
2022-09-16T19:50:57.682Z,55.60
2022-09-16T19:53:24.082Z,55.90
2022-09-16T19:55:50.494Z,56.00
2022-09-16T19:58:16.901Z,55.60
2022-09-16T20:00:55.792Z,55.80
2022-09-16T20:03:22.850Z,55.50
2022-09-16T20:05:49.252Z,55.80
2022-09-16T20:08:15.667Z,55.50
2022-09-16T20:10:42.088Z,55.30
2022-09-16T20:13:08.521Z,56.00
2022-09-16T20:15:34.940Z,56.00
2022-09-16T20:18:01.355Z,56.30
2022-09-16T20:20:27.748Z,56.30
2022-09-16T20:22:54.169Z,56.20
2022-09-16T20:25:23.548Z,55.80
2022-09-16T20:27:50.161Z,55.70
2022-09-16T20:30:16.563Z,56.00
2022-09-16T20:32:42.964Z,55.70
2022-09-16T20:35:09.383Z,56.10
2022-09-16T20:37:35.798Z,55.70
2022-09-16T20:40:02.340Z,55.60
2022-09-16T20:42:28.781Z,55.60
2022-09-16T20:44:55.213Z,56.00
2022-09-16T20:47:21.616Z,55.80
2022-09-16T20:49:48.028Z,55.60
2022-09-16T20:52:14.449Z,55.60
2022-09-16T20:54:40.861Z,55.50
2022-09-16T20:59:34.244Z,55.90
2022-09-16T21:02:00.733Z,55.90
2022-09-16T21:04:27.158Z,55.50
2022-09-16T21:06:53.698Z,55.20
2022-09-16T21:11:47.029Z,55.40
2022-09-16T21:14:13.437Z,55.20
2022-09-16T21:16:39.899Z,55.40
2022-09-16T21:19:06.322Z,55.80
2022-09-16T21:21:32.755Z,55.30
2022-09-16T21:23:59.245Z,55.50
2022-09-16T21:26:25.749Z,55.20
2022-09-16T21:28:52.165Z,52.90
2022-09-16T21:31:18.631Z,55.20
2022-09-16T21:33:45.093Z,55.10
2022-09-16T21:36:11.521Z,55.20
2022-09-16T21:38:37.952Z,54.90
2022-09-16T21:41:04.372Z,55.30
2022-09-16T21:43:30.813Z,55.20
2022-09-16T21:45:57.272Z,55.20
2022-09-16T21:50:50.641Z,55.20
2022-09-16T21:53:17.053Z,55.10
2022-09-16T21:55:43.471Z,55.60
2022-09-16T21:58:09.861Z,55.10
2022-09-16T22:00:36.273Z,55.20
2022-09-16T22:03:02.683Z,55.50
2022-09-16T22:05:29.088Z,55.20
2022-09-16T22:07:55.506Z,55.00
2022-09-16T22:10:21.902Z,55.00
2022-09-16T22:12:48.316Z,55.40
2022-09-16T22:15:14.713Z,55.30
2022-09-16T22:17:41.134Z,54.90
2022-09-16T22:20:07.531Z,55.10
2022-09-16T22:22:33.954Z,55.00
2022-09-16T22:25:00.373Z,54.90
2022-09-16T22:27:26.769Z,55.30
2022-09-16T22:29:53.161Z,55.30
2022-09-16T22:34:46.499Z,54.80
2022-09-16T22:37:12.920Z,55.20
2022-09-16T22:39:39.346Z,54.90
2022-09-16T22:42:05.770Z,54.80
2022-09-16T22:44:32.168Z,55.20
2022-09-16T22:46:58.666Z,54.60
2022-09-16T22:49:25.096Z,55.00
2022-09-16T22:51:51.504Z,55.10
2022-09-16T22:54:17.909Z,55.00
2022-09-16T22:56:44.310Z,54.90
2022-09-16T22:59:10.718Z,54.40
2022-09-16T23:01:37.242Z,55.20
2022-09-16T23:04:03.699Z,54.60
2022-09-16T23:06:30.172Z,54.90
2022-09-16T23:11:23.506Z,55.00
2022-09-16T23:13:49.901Z,54.50
2022-09-16T23:16:16.362Z,54.80
2022-09-16T23:21:09.774Z,54.70
2022-09-16T23:23:36.244Z,54.40
2022-09-16T23:26:02.661Z,54.50
2022-09-16T23:28:29.060Z,54.70
2022-09-16T23:30:55.532Z,54.60
2022-09-16T23:33:21.948Z,54.80
2022-09-16T23:35:48.367Z,55.10
2022-09-16T23:38:14.785Z,54.50
2022-09-16T23:40:41.209Z,54.70
2022-09-16T23:43:07.642Z,54.80
2022-09-16T23:45:34.049Z,54.80
2022-09-16T23:48:00.457Z,54.60
2022-09-16T23:50:26.859Z,54.70
2022-09-16T23:52:53.274Z,54.90
2022-09-16T23:55:19.673Z,53.60
2022-09-16T23:57:46.114Z,54.70
